LBB weather

Los Bravos De Bonfil Airport
Ciudad Del Carmen, Campeche, Mexico

Public forecast

Using degrees Celsius for public forecast. Weather courtesy of forecast.io.

METAR (pilot weather report)

Closest report is Palenque International Airport, 33.2 nm (61.4 km) SW. Retrieved 2019/06/27 00:44 UTC (2 minutes ago):

MMPQ 270044Z 09010KT 7SM BKN030CB 29/23 A2981 RMK 8/300 HZY

TAF (pilot weather forecast)

Forecast is more than 6 hours old.

Closest forecast is Palenque International Airport, 33.2 nm (61.4 km) SW. Retrieved 2019/06/26 18:18 UTC (6 hours ago):

TAF MMPQ 261718Z 2618/2718 12010KT 6SM HZ BKN030 BKN200 FM270600 09010KT 6SM HZ SCT020 BKN200